createdAt,value
2022-09-04T00:01:46.849Z,18.23
2022-09-04T00:05:53.274Z,9.65
2022-09-04T00:10:31.724Z,8.23
2022-09-04T00:14:42.655Z,10.52
2022-09-04T00:19:14.136Z,10.70
2022-09-04T00:23:23.610Z,7.93
2022-09-04T00:27:35.924Z,9.45
2022-09-04T00:32:08.242Z,22.42
2022-09-04T00:36:13.288Z,9.65
2022-09-04T00:40:26.516Z,10.80
2022-09-04T00:44:50.854Z,20.02
2022-09-04T00:49:21.900Z,12.52
2022-09-04T00:53:56.777Z,21.33
2022-09-04T00:58:21.655Z,24.05
2022-09-04T01:02:38.419Z,17.83
2022-09-04T01:07:17.238Z,9.20
2022-09-04T01:11:34.300Z,10.13
2022-09-04T01:15:45.215Z,12.65
2022-09-04T01:19:57.478Z,12.82
2022-09-04T01:24:40.243Z,12.93
2022-09-04T01:29:02.865Z,17.10
2022-09-04T01:33:28.815Z,9.45
2022-09-04T01:37:50.233Z,9.15
2022-09-04T01:42:18.298Z,9.57
2022-09-04T01:46:42.894Z,21.00
2022-09-04T01:50:50.374Z,9.93
2022-09-04T01:55:25.054Z,9.75
2022-09-04T01:59:58.892Z,11.45
2022-09-04T02:04:12.618Z,13.43
2022-09-04T02:08:29.558Z,10.43
2022-09-04T02:12:38.336Z,8.02
2022-09-04T02:16:57.288Z,8.75
2022-09-04T02:21:07.166Z,11.68
2022-09-04T02:25:37.566Z,9.65
2022-09-04T02:29:46.030Z,10.60
2022-09-04T02:34:21.040Z,11.80
2022-09-04T02:38:33.377Z,8.35
2022-09-04T02:43:07.475Z,18.77
2022-09-04T02:47:21.020Z,15.35
2022-09-04T02:51:54.198Z,18.77
2022-09-04T02:56:16.694Z,15.43
2022-09-04T03:00:45.783Z,11.38
2022-09-04T03:05:18.808Z,7.05
2022-09-04T03:09:48.342Z,17.45
2022-09-04T03:14:01.833Z,9.27
2022-09-04T03:18:31.383Z,12.32
2022-09-04T03:22:40.239Z,16.17
2022-09-04T03:27:14.162Z,9.90
2022-09-04T03:31:52.322Z,16.15
2022-09-04T03:36:02.351Z,8.90
2022-09-04T03:40:32.710Z,8.13
2022-09-04T03:44:46.958Z,19.65
2022-09-04T03:49:09.780Z,21.65
2022-09-04T03:53:23.320Z,14.50
2022-09-04T03:57:52.730Z,12.27
2022-09-04T04:02:36.039Z,20.52
2022-09-04T04:07:23.210Z,15.77
2022-09-04T04:11:55.311Z,17.20
2022-09-04T04:16:31.390Z,16.38
2022-09-04T04:21:03.247Z,10.45
2022-09-04T04:25:41.394Z,11.65
2022-09-04T04:30:10.463Z,7.90
2022-09-04T04:34:54.131Z,8.30
2022-09-04T04:39:30.378Z,19.27
2022-09-04T04:44:03.781Z,21.65
2022-09-04T04:48:55.657Z,7.20
2022-09-04T04:53:07.093Z,11.32
2022-09-04T04:57:39.713Z,6.72
2022-09-04T05:02:14.495Z,10.57
2022-09-04T05:06:50.923Z,9.18
2022-09-04T05:11:31.413Z,7.78
2022-09-04T05:16:09.215Z,8.73
2022-09-04T05:20:41.557Z,8.18
2022-09-04T05:25:01.440Z,7.20
2022-09-04T05:29:35.410Z,8.70
2022-09-04T05:33:46.506Z,7.00
2022-09-04T05:37:57.674Z,9.13
2022-09-04T05:42:39.759Z,15.68
2022-09-04T05:47:12.761Z,15.43
2022-09-04T05:51:51.251Z,10.73
2022-09-04T05:56:27.260Z,10.63
2022-09-04T06:01:02.827Z,14.25
2022-09-04T06:05:34.601Z,9.77
2022-09-04T06:10:12.382Z,9.75
2022-09-04T06:14:57.154Z,9.95
2022-09-04T06:19:35.217Z,11.65
2022-09-04T06:29:16.735Z,9.38
2022-09-04T06:33:44.900Z,10.32
2022-09-04T06:38:18.206Z,10.45
2022-09-04T06:42:54.460Z,11.82
2022-09-04T06:47:30.657Z,9.48
2022-09-04T06:52:11.253Z,9.88
2022-09-04T06:56:45.789Z,10.55
2022-09-04T07:01:16.816Z,10.55
2022-09-04T07:05:46.349Z,8.85
2022-09-04T07:10:13.691Z,9.73
2022-09-04T07:14:54.939Z,9.88
2022-09-04T07:19:37.592Z,9.00
2022-09-04T07:23:50.058Z,8.15
2022-09-04T07:28:27.496Z,7.95
2022-09-04T07:32:54.962Z,7.20
2022-09-04T07:37:05.382Z,7.05
2022-09-04T07:41:37.846Z,7.00
2022-09-04T07:46:14.050Z,7.38
2022-09-04T07:50:44.596Z,8.15
2022-09-04T07:55:09.581Z,7.70
2022-09-04T07:59:49.490Z,7.03
2022-09-04T08:04:38.317Z,6.85
2022-09-04T08:09:13.302Z,7.38
2022-09-04T08:13:47.323Z,7.93
2022-09-04T08:18:20.269Z,8.55
2022-09-04T08:22:33.253Z,8.45
2022-09-04T08:27:05.689Z,8.23
2022-09-04T08:31:38.031Z,8.50
2022-09-04T08:35:49.543Z,8.65
2022-09-04T08:40:30.922Z,8.73
2022-09-04T08:45:10.565Z,10.63
2022-09-04T08:49:55.565Z,10.35
2022-09-04T08:54:37.247Z,12.43
2022-09-04T08:59:28.531Z,11.15
2022-09-04T09:04:22.918Z,10.80
2022-09-04T09:08:55.275Z,10.68
2022-09-04T09:13:35.354Z,10.82
2022-09-04T09:18:23.566Z,10.07
2022-09-04T09:22:39.637Z,9.80
2022-09-04T09:27:14.232Z,8.52
2022-09-04T09:31:50.674Z,9.63
2022-09-04T09:36:27.721Z,8.55
2022-09-04T09:41:07.646Z,8.77
2022-09-04T09:45:50.112Z,6.90
2022-09-04T09:50:20.919Z,6.75
2022-09-04T09:55:04.174Z,7.28
2022-09-04T09:59:45.656Z,5.53
2022-09-04T10:04:24.047Z,5.05
2022-09-04T10:08:48.288Z,5.20
2022-09-04T10:13:31.122Z,4.75
2022-09-04T10:18:23.243Z,5.10
2022-09-04T10:33:28.266Z,3.80
2022-09-04T10:38:06.631Z,2.60
2022-09-04T10:42:41.287Z,2.38
2022-09-04T10:47:09.012Z,2.38
2022-09-04T10:51:54.839Z,2.20
2022-09-04T10:56:16.315Z,1.92
2022-09-04T11:00:51.235Z,1.90
2022-09-04T11:05:27.904Z,2.03
2022-09-04T11:10:17.028Z,2.00
2022-09-04T11:14:50.647Z,1.80
2022-09-04T11:25:01.605Z,1.60
2022-09-04T11:29:41.550Z,1.70
2022-09-04T11:34:33.316Z,1.63
2022-09-04T11:38:58.307Z,1.58
2022-09-04T11:43:30.328Z,1.50
2022-09-04T11:48:06.957Z,1.70
2022-09-04T11:52:59.354Z,1.48
2022-09-04T11:57:14.770Z,1.63
2022-09-04T12:01:45.713Z,1.50
2022-09-04T12:06:09.737Z,1.80
2022-09-04T12:10:43.334Z,1.40
2022-09-04T12:15:08.708Z,1.70
2022-09-04T12:19:46.760Z,1.55
2022-09-04T12:24:28.714Z,1.50
2022-09-04T12:29:17.503Z,1.40
2022-09-04T12:33:44.590Z,1.50
2022-09-04T12:38:13.200Z,1.50
2022-09-04T12:42:21.491Z,1.70
2022-09-04T12:46:50.427Z,1.52
2022-09-04T12:51:13.766Z,1.73
2022-09-04T12:55:46.944Z,1.60
2022-09-04T13:00:03.321Z,1.33
2022-09-04T13:04:34.438Z,1.50
2022-09-04T13:09:09.251Z,1.80
2022-09-04T13:13:43.605Z,1.95
2022-09-04T13:18:16.806Z,1.80
2022-09-04T13:22:32.917Z,2.00
2022-09-04T13:27:02.669Z,2.08
2022-09-04T13:31:27.087Z,2.00
2022-09-04T13:36:08.015Z,2.08
2022-09-04T13:40:27.624Z,2.33
2022-09-04T13:45:00.408Z,2.50
2022-09-04T13:49:11.786Z,2.53
2022-09-04T13:53:44.237Z,2.63
2022-09-04T13:58:20.139Z,2.50
2022-09-04T14:02:50.819Z,2.47
2022-09-04T14:07:06.315Z,2.65
2022-09-04T14:11:42.548Z,2.40
2022-09-04T14:16:09.239Z,2.10
2022-09-04T14:20:34.450Z,2.42
2022-09-04T14:29:39.893Z,2.42
2022-09-04T14:32:06.797Z,2.17
2022-09-04T14:34:14.149Z,2.10
2022-09-04T14:38:50.583Z,2.72
2022-09-04T14:43:23.927Z,2.78
2022-09-04T14:47:55.087Z,2.42
2022-09-04T14:52:39.586Z,2.47
2022-09-04T14:57:14.243Z,2.22
2022-09-04T15:01:54.737Z,2.53
2022-09-04T15:06:44.507Z,2.20
2022-09-04T15:11:10.785Z,1.90
2022-09-04T15:15:47.098Z,1.63
2022-09-04T15:20:23.133Z,1.60
2022-09-04T15:24:59.654Z,1.67
2022-09-04T15:29:38.708Z,2.00
2022-09-04T15:34:11.648Z,1.70
2022-09-04T15:38:52.380Z,1.92
2022-09-04T15:43:22.875Z,1.90
2022-09-04T15:48:03.082Z,1.73
2022-09-04T15:52:23.085Z,1.65
2022-09-04T15:56:46.097Z,1.70
2022-09-04T16:01:16.845Z,1.60
2022-09-04T16:05:45.068Z,1.60
2022-09-04T16:10:17.334Z,1.50
2022-09-04T16:14:50.925Z,1.58
2022-09-04T16:19:05.746Z,1.67
2022-09-04T16:23:32.070Z,1.70
2022-09-04T16:27:43.619Z,1.40
2022-09-04T16:32:13.591Z,1.50
2022-09-04T16:36:48.425Z,1.55
2022-09-04T16:41:29.154Z,1.55
2022-09-04T16:46:07.832Z,1.58
2022-09-04T16:50:39.945Z,1.60
2022-09-04T16:55:13.946Z,1.63
2022-09-04T16:59:49.567Z,1.52
2022-09-04T17:04:31.146Z,1.52
2022-09-04T17:09:05.035Z,1.80
2022-09-04T17:13:44.011Z,1.50
2022-09-04T17:18:11.759Z,1.83
2022-09-04T17:29:04.445Z,1.67
2022-09-04T17:29:07.536Z,1.60
2022-09-04T17:39:01.152Z,1.70
2022-09-04T17:40:51.769Z,2.08
2022-09-04T17:42:26.374Z,2.20
2022-09-04T17:47:04.021Z,1.90
2022-09-04T17:51:33.990Z,2.40
2022-09-04T17:56:12.073Z,2.30
2022-09-04T18:00:51.470Z,2.58
2022-09-04T18:05:20.521Z,2.50
2022-09-04T18:09:47.828Z,2.50
2022-09-04T18:14:23.396Z,2.58
2022-09-04T18:18:56.671Z,2.28
2022-09-04T18:23:31.559Z,2.50
2022-09-04T18:28:12.327Z,2.92
2022-09-04T18:37:06.805Z,2.50
2022-09-04T18:37:45.136Z,2.60
2022-09-04T18:49:15.953Z,2.63
2022-09-04T18:50:30.440Z,3.33
2022-09-04T18:52:48.617Z,3.00
2022-09-04T18:57:24.575Z,2.80
2022-09-04T19:01:56.594Z,2.38
2022-09-04T19:06:07.914Z,2.60
2022-09-04T19:10:44.633Z,2.78
2022-09-04T19:15:18.471Z,2.90
2022-09-04T19:19:52.788Z,2.97
2022-09-04T19:24:31.437Z,2.95
2022-09-04T19:29:08.499Z,2.85
2022-09-04T19:33:39.150Z,3.03
2022-09-04T19:40:44.691Z,2.90
2022-09-04T19:46:16.323Z,2.90
2022-09-04T19:47:52.289Z,3.00
2022-09-04T19:53:31.151Z,3.17
2022-09-04T19:57:31.986Z,3.20
2022-09-04T20:01:46.073Z,3.35
2022-09-04T20:05:57.876Z,3.75
2022-09-04T20:10:34.534Z,3.95
2022-09-04T20:14:43.436Z,3.35
2022-09-04T20:18:50.739Z,3.70
2022-09-04T20:23:34.832Z,4.20
2022-09-04T20:27:46.166Z,4.25
2022-09-04T20:31:55.324Z,3.85
2022-09-04T20:36:04.227Z,4.32
2022-09-04T20:40:18.126Z,4.40
2022-09-04T20:45:07.124Z,4.75
2022-09-04T20:52:59.848Z,4.88
2022-09-04T20:54:08.091Z,4.32
2022-09-04T21:03:08.714Z,4.35
2022-09-04T21:03:27.931Z,4.50
2022-09-04T21:07:39.709Z,4.45
2022-09-04T21:11:45.989Z,5.53
2022-09-04T21:16:31.661Z,4.82
2022-09-04T21:21:00.515Z,4.65
2022-09-04T21:25:29.191Z,4.38
2022-09-04T21:29:53.263Z,4.63
2022-09-04T21:34:13.731Z,4.93
2022-09-04T21:38:58.860Z,6.07
2022-09-04T21:43:35.788Z,6.63
2022-09-04T21:47:58.757Z,6.22
2022-09-04T21:52:20.336Z,6.65
2022-09-04T22:02:32.179Z,4.60
2022-09-04T22:02:40.137Z,4.50
2022-09-04T22:10:33.721Z,4.63
2022-09-04T22:13:39.585Z,5.00
2022-09-04T22:16:05.586Z,4.57
2022-09-04T22:20:31.002Z,5.13
2022-09-04T22:25:20.726Z,5.20
2022-09-04T22:29:53.074Z,5.40
2022-09-04T22:34:19.938Z,5.25
2022-09-04T22:39:01.825Z,5.35
2022-09-04T22:43:13.336Z,4.82
2022-09-04T22:47:36.761Z,5.00
2022-09-04T22:52:21.296Z,5.07
2022-09-04T22:56:45.639Z,5.10
2022-09-04T23:01:04.903Z,5.40
2022-09-04T23:05:41.346Z,5.30
2022-09-04T23:13:49.102Z,4.85
2022-09-04T23:14:42.369Z,5.57
2022-09-04T23:24:13.478Z,5.93
2022-09-04T23:26:50.537Z,5.10
2022-09-04T23:29:04.533Z,5.75
2022-09-04T23:33:46.033Z,6.20
2022-09-04T23:38:25.223Z,6.20
2022-09-04T23:43:03.995Z,6.13
2022-09-04T23:47:48.672Z,6.82
2022-09-04T23:52:09.124Z,5.65
2022-09-04T23:56:25.044Z,5.30
